Saga Pearl II — 9HA2950 — position and weather

sailwx.info

Track history (hours):
 
Tides and Currents Weather Stations Pressure Air Temp Water Temp Dewpoint Dewpoint Depression Visibility Wind Speed Wind Dir Waves Ship Positions

Saga Pearl II

Last reported at 2018-Jun-22 07:31 UTC. Time now 2018-Jun-22 07:42 UTC.
Position N 39°16' W 010°05'.

Length 164 m; draft 6.4 m.

Type: Ship. MMSI: 256878000.

Date/timePositionNaut miles runAvg speedWind from/ knotsBaromVisibWave heightAir tempDewpointWater temp
2018-Jun-22 07:31N 39°16' W 010°05'815.2
2018-Jun-22 07:01N 39°23' W 010°05'815.1
2018-Jun-22 06:30N 39°31' W 010°06'815.2
2018-Jun-22 06:00N 39°38' W 010°06'16615.0
2018-Jun-21 19:00N 42°24' W 010°00'35514.6 050 / 351017.6 5.4 17.415.217.6
2018-Jun-20 18:43N 47°50' W 006°41'4914.6
2018-Jun-20 15:21N 48°34' W 006°08'615.6
2018-Jun-20 15:00N 48°39' W 006°05'815.5
2018-Jun-20 14:30N 48°45' W 005°59'915.1
2018-Jun-20 13:56N 48°52' W 005°50'815.0
2018-Jun-20 13:23N 48°55' W 005°39'615.2
2018-Jun-20 13:00N 48°58' W 005°31'815.2
2018-Jun-20 12:30N 49°02' W 005°21'714.9
2018-Jun-20 12:00N 49°06' W 005°12'3313.7
2018-Jun-20 09:34N 49°24' W 004°29'2713.7
2018-Jun-20 07:36N 49°38' W 003°53'314.5
2018-Jun-20 07:24N 49°40' W 003°49'914.9
2018-Jun-20 06:49N 49°44' W 003°38'515.4
2018-Jun-20 06:30N 49°46' W 003°31'815.5
2018-Jun-20 06:01N 49°50' W 003°21'816.0
2018-Jun-20 05:30N 49°54' W 003°10'5014.3
2018-Jun-20 02:00N 50°06' W 001°54'4212.3 230 / 101022.710.8 14.513.6
2018-Jun-19 22:37N 50°21' W 000°53'214.4
2018-Jun-19 22:30N 50°22' W 000°51'2915.4
2018-Jun-19 20:36N 50°30' W 000°07'216.0
2018-Jun-19 20:30N 50°31' W 000°04'815.9
2018-Jun-19 20:00N 50°33' E 000°08'815.9
2018-Jun-19 19:31N 50°35' E 000°20'815.9
2018-Jun-19 19:01N 50°37' E 000°32'815.3
2018-Jun-19 18:31N 50°41' E 000°42'714.9
2018-Jun-19 18:00N 50°45' E 000°52'714.3
2018-Jun-19 17:30N 50°49' E 001°01'713.5
2018-Jun-19 17:01N 50°54' E 001°09'612.8
2018-Jun-19 16:30N 50°59' E 001°15'612.6
2018-Jun-19 16:01N 51°04' E 001°19'2 4.7
2018-Jun-19 15:31N 51°07' E 001°19'0 0.0
2018-Jun-19 11:23N 51°07' E 001°19'0 0.0
2018-Jun-19 10:53N 51°07' E 001°19'0 0.0
2018-Jun-19 10:30N 51°07' E 001°19'0 0.0
2018-Jun-19 06:37N 51°07' E 001°19'0 2.9
2018-Jun-19 06:30N 51°07' E 001°20'510.0
2018-Jun-19 06:00N 51°08' E 001°28'612.7
2018-Jun-19 05:30N 51°10' E 001°37'713.4
2018-Jun-19 05:00N 51°14' E 001°45'4 7.4
2018-Jun-19 04:30N 51°17' E 001°48'4 7.4
2018-Jun-19 04:00N 51°21' E 001°50'4 8.1
2018-Jun-19 03:30N 51°25' E 001°53'4 8.6
2018-Jun-19 03:00N 51°28' E 001°57'5 9.6
2018-Jun-19 02:30N 51°31' E 002°03'510.1
2018-Jun-19 02:00N 51°35' E 002°08'510.7
2018-Jun-19 01:30N 51°39' E 002°14'611.0
2018-Jun-19 01:00N 51°43' E 002°21'4010.2
2018-Jun-18 21:03N 52°14' E 003°03'6 8.2
2018-Jun-18 20:20N 52°18' E 003°08'3 7.9
2018-Jun-18 19:59N 52°21' E 003°11'4 7.8
2018-Jun-18 19:30N 52°24' E 003°14'1 2.7
2018-Jun-18 19:00N 52°24' E 003°12'585.5 230 / 251017.710.8 14.513.6
2018-Jun-18 18:56N 52°28' E 003°18'3 7.4
2018-Jun-18 18:29N 52°30' E 003°21'10 7.5
2018-Jun-18 17:08N 52°38' E 003°31'3 8.0
2018-Jun-18 16:48N 52°40' E 003°34'3 8.5
2018-Jun-18 16:27N 52°43' E 003°37'4 9.1
2018-Jun-18 15:58N 52°46' E 003°41'60 9.4
2018-Jun-18 09:36N 53°31' E 004°48'1 8.0
2018-Jun-18 09:27N 53°31' E 004°50'4 8.0
2018-Jun-18 09:00N 53°32' E 004°55'4 8.0
2018-Jun-18 08:28N 53°34' E 005°02'73 8.6
2018-Jun-18 00:00N 53°54' E 007°00'2810.7 190 / 111016.627.0 15.013.2
2018-Jun-17 21:21N 54°01' E 007°46'4 9.6
2018-Jun-17 20:58N 54°01' E 007°52'5 9.8
2018-Jun-17 20:30N 54°01' E 008°00'510.4
2018-Jun-17 20:00N 54°01' E 008°09'611.8
2018-Jun-17 19:29N 53°60' E 008°19'917.3
2018-Jun-17 18:59N 53°58' E 008°34'816.3
2018-Jun-17 18:30N 53°52' E 008°43'714.4
2018-Jun-17 18:01N 53°51' E 008°55'714.2
2018-Jun-17 17:30N 53°53' E 009°06'2 3.2
2018-Jun-17 17:00N 53°54' E 009°09'0 0.0
2018-Jun-17 16:30N 53°54' E 009°09'1 2.3
2018-Jun-17 16:00N 53°54' E 009°10'3 6.5
2018-Jun-17 15:30N 53°57' E 009°14'4 7.8
2018-Jun-17 15:00N 54°00' E 009°18'3 5.0
2018-Jun-17 14:30N 54°03' E 009°18'3 5.1
2018-Jun-17 14:00N 54°05' E 009°19'4 7.1
2018-Jun-17 13:25N 54°09' E 009°22'3 5.6
2018-Jun-17 12:54N 54°10' E 009°26'35 4.5
2018-Jun-17 05:05N 54°30' E 010°17'412.2
2018-Jun-17 04:46N 54°31' E 010°23'415.8
2018-Jun-17 04:30N 54°33' E 010°29'815.8
2018-Jun-17 04:00N 54°35' E 010°42'815.8
2018-Jun-17 03:30N 54°36' E 010°56'815.9
2018-Jun-17 03:00N 54°36' E 011°10'816.5
2018-Jun-17 02:31N 54°33' E 011°22'815.7
2018-Jun-17 02:00N 54°29' E 011°34'815.7
2018-Jun-17 01:30N 54°26' E 011°47'815.5
2018-Jun-17 01:00N 54°26' E 012°00'714.1
2018-Jun-17 00:30N 54°30' E 012°11'2514.9
2018-Jun-16 22:48N 54°48' E 012°42'412.5
2018-Jun-16 22:30N 54°49' E 012°48'612.8
2018-Jun-16 22:00N 54°50' E 012°59'714.9
2018-Jun-16 21:30N 54°53' E 013°10'815.4
2018-Jun-16 21:00N 54°56' E 013°23'915.0
2018-Jun-16 20:25N 54°59' E 013°38'614.7
2018-Jun-16 20:00N 55°01' E 013°47'814.9
2018-Jun-16 19:29N 55°04' E 014°00'714.7
2018-Jun-16 19:00N 55°08' E 014°09'3179.3
2018-Jun-16 19:00N 55°06' E 014°06'1021.1 120 / 231014.710.8 18.411.5
2018-Jun-16 18:30N 55°14' E 014°18'714.8
2018-Jun-16 18:00N 55°20' E 014°26'714.7
2018-Jun-16 17:30N 55°25' E 014°35'714.7
2018-Jun-16 17:00N 55°30' E 014°44'714.9
2018-Jun-16 16:30N 55°34' E 014°56'611.2
2018-Jun-16 15:59N 55°36' E 015°05'510.5
2018-Jun-16 15:29N 55°39' E 015°13'510.4
2018-Jun-16 15:00N 55°41' E 015°21'610.4
2018-Jun-16 14:27N 55°44' E 015°29'510.6
2018-Jun-16 13:59N 55°47' E 015°37'510.3
2018-Jun-16 13:30N 55°49' E 015°45'510.1
2018-Jun-16 13:00N 55°52' E 015°53'8 7.8
2018-Jun-16 12:00N 55°54' E 016°06'16413.7 180 / 61018.7 19.911.0
2018-Jun-16 00:00N 58°18' E 018°30'3112.6 190 / 221015.927.0 15.914.3
2018-Jun-15 21:33N 58°41' E 019°08'1130.0
2018-Jun-15 21:10N 58°53' E 019°14'614.2
2018-Jun-15 20:45N 58°58' E 019°20'414.0
2018-Jun-15 20:29N 59°01' E 019°24'714.0
2018-Jun-15 20:00N 59°07' E 019°30'6477.1
2018-Jun-15 20:00N 59°12' E 019°36'1 2.2 240 / 201014.310.8 15.214.1
2018-Jun-15 19:29N 59°13' E 019°38'714.1
2018-Jun-15 19:00N 59°18' E 019°45'1514.2
2018-Jun-15 17:57N 59°30' E 020°02'613.2
2018-Jun-15 17:30N 59°36' E 019°59'714.4
2018-Jun-15 17:00N 59°41' E 019°50'714.5
2018-Jun-15 16:30N 59°47' E 019°41'814.0
2018-Jun-15 15:58N 59°54' E 019°46'6 0.5
2018-Jun-15 03:48N 60°01' E 019°47'412.2
2018-Jun-15 03:29N 60°02' E 019°40'612.6
2018-Jun-15 03:00N 60°04' E 019°29'713.2
2018-Jun-15 02:30N 60°07' E 019°16'713.1
2018-Jun-15 02:00N 60°09' E 019°04'611.5
2018-Jun-15 01:30N 60°15' E 019°01'812.8
2018-Jun-15 00:54N 60°22' E 018°60'812.9
2018-Jun-15 00:14N 60°31' E 018°59'313.4
2018-Jun-15 00:00N 60°34' E 019°00'713.3
2018-Jun-14 23:30N 60°40' E 019°03'713.1
2018-Jun-14 23:00N 60°47' E 019°06'212 4.2
2018-Jun-12 21:00N 64°06' E 021°42'   240 / 121006.210.8 8.0 5.8
Track history (hours):
 
Tides and Currents Weather Stations Pressure Air Temp Water Temp Dewpoint Dewpoint Depression Visibility Wind Speed Wind Dir Waves Ship Positions

Saga Pearl II

Last reported at 2018-Jun-22 07:31 UTC. Time now 2018-Jun-22 07:42 UTC.
Position N 39°16' W 010°05'.

Length 164 m; draft 6.4 m.

Type: Ship. MMSI: 256878000.

Date/timePositionNaut miles runAvg speedWind from/ knotsBaromVisibWave heightAir tempDewpointWater temp
2018-Jun-22 07:31N 39°16' W 010°05'815.2
2018-Jun-22 07:01N 39°23' W 010°05'815.1
2018-Jun-22 06:30N 39°31' W 010°06'815.2
2018-Jun-22 06:00N 39°38' W 010°06'16615.0
2018-Jun-21 19:00N 42°24' W 010°00'35514.6 050 / 351017.6 5.4 17.415.217.6
2018-Jun-20 18:43N 47°50' W 006°41'4914.6
2018-Jun-20 15:21N 48°34' W 006°08'615.6
2018-Jun-20 15:00N 48°39' W 006°05'815.5
2018-Jun-20 14:30N 48°45' W 005°59'915.1
2018-Jun-20 13:56N 48°52' W 005°50'815.0
2018-Jun-20 13:23N 48°55' W 005°39'615.2
2018-Jun-20 13:00N 48°58' W 005°31'815.2
2018-Jun-20 12:30N 49°02' W 005°21'714.9
2018-Jun-20 12:00N 49°06' W 005°12'3313.7
2018-Jun-20 09:34N 49°24' W 004°29'2713.7
2018-Jun-20 07:36N 49°38' W 003°53'314.5
2018-Jun-20 07:24N 49°40' W 003°49'914.9
2018-Jun-20 06:49N 49°44' W 003°38'515.4
2018-Jun-20 06:30N 49°46' W 003°31'815.5
2018-Jun-20 06:01N 49°50' W 003°21'816.0
2018-Jun-20 05:30N 49°54' W 003°10'5014.3
2018-Jun-20 02:00N 50°06' W 001°54'4212.3 230 / 101022.710.8 14.513.6
2018-Jun-19 22:37N 50°21' W 000°53'214.4
2018-Jun-19 22:30N 50°22' W 000°51'2915.4
2018-Jun-19 20:36N 50°30' W 000°07'216.0
2018-Jun-19 20:30N 50°31' W 000°04'815.9
2018-Jun-19 20:00N 50°33' E 000°08'815.9
2018-Jun-19 19:31N 50°35' E 000°20'815.9
2018-Jun-19 19:01N 50°37' E 000°32'815.3
2018-Jun-19 18:31N 50°41' E 000°42'714.9
2018-Jun-19 18:00N 50°45' E 000°52'714.3
2018-Jun-19 17:30N 50°49' E 001°01'713.5
2018-Jun-19 17:01N 50°54' E 001°09'612.8
2018-Jun-19 16:30N 50°59' E 001°15'612.6
2018-Jun-19 16:01N 51°04' E 001°19'2 4.7
2018-Jun-19 15:31N 51°07' E 001°19'0 0.0
2018-Jun-19 11:23N 51°07' E 001°19'0 0.0
2018-Jun-19 10:53N 51°07' E 001°19'0 0.0
2018-Jun-19 10:30N 51°07' E 001°19'0 0.0
2018-Jun-19 06:37N 51°07' E 001°19'0 2.9
2018-Jun-19 06:30N 51°07' E 001°20'510.0
2018-Jun-19 06:00N 51°08' E 001°28'612.7
2018-Jun-19 05:30N 51°10' E 001°37'713.4
2018-Jun-19 05:00N 51°14' E 001°45'4 7.4
2018-Jun-19 04:30N 51°17' E 001°48'4 7.4
2018-Jun-19 04:00N 51°21' E 001°50'4 8.1
2018-Jun-19 03:30N 51°25' E 001°53'4 8.6
2018-Jun-19 03:00N 51°28' E 001°57'5 9.6
2018-Jun-19 02:30N 51°31' E 002°03'510.1
2018-Jun-19 02:00N 51°35' E 002°08'510.7
2018-Jun-19 01:30N 51°39' E 002°14'611.0
2018-Jun-19 01:00N 51°43' E 002°21'4010.2
2018-Jun-18 21:03N 52°14' E 003°03'6 8.2
2018-Jun-18 20:20N 52°18' E 003°08'3 7.9
2018-Jun-18 19:59N 52°21' E 003°11'4 7.8
2018-Jun-18 19:30N 52°24' E 003°14'1 2.7
2018-Jun-18 19:00N 52°24' E 003°12'585.5 230 / 251017.710.8 14.513.6
2018-Jun-18 18:56N 52°28' E 003°18'3 7.4
2018-Jun-18 18:29N 52°30' E 003°21'10 7.5
2018-Jun-18 17:08N 52°38' E 003°31'3 8.0
2018-Jun-18 16:48N 52°40' E 003°34'3 8.5
2018-Jun-18 16:27N 52°43' E 003°37'4 9.1
2018-Jun-18 15:58N 52°46' E 003°41'60 9.4
2018-Jun-18 09:36N 53°31' E 004°48'1 8.0
2018-Jun-18 09:27N 53°31' E 004°50'4 8.0
2018-Jun-18 09:00N 53°32' E 004°55'4 8.0
2018-Jun-18 08:28N 53°34' E 005°02'73 8.6
2018-Jun-18 00:00N 53°54' E 007°00'2810.7 190 / 111016.627.0 15.013.2
2018-Jun-17 21:21N 54°01' E 007°46'4 9.6
2018-Jun-17 20:58N 54°01' E 007°52'5 9.8
2018-Jun-17 20:30N 54°01' E 008°00'510.4
2018-Jun-17 20:00N 54°01' E 008°09'611.8
2018-Jun-17 19:29N 53°60' E 008°19'917.3
2018-Jun-17 18:59N 53°58' E 008°34'816.3
2018-Jun-17 18:30N 53°52' E 008°43'714.4
2018-Jun-17 18:01N 53°51' E 008°55'714.2
2018-Jun-17 17:30N 53°53' E 009°06'2 3.2
2018-Jun-17 17:00N 53°54' E 009°09'0 0.0
2018-Jun-17 16:30N 53°54' E 009°09'1 2.3
2018-Jun-17 16:00N 53°54' E 009°10'3 6.5
2018-Jun-17 15:30N 53°57' E 009°14'4 7.8
2018-Jun-17 15:00N 54°00' E 009°18'3 5.0
2018-Jun-17 14:30N 54°03' E 009°18'3 5.1
2018-Jun-17 14:00N 54°05' E 009°19'4 7.1
2018-Jun-17 13:25N 54°09' E 009°22'3 5.6
2018-Jun-17 12:54N 54°10' E 009°26'35 4.5
2018-Jun-17 05:05N 54°30' E 010°17'412.2
2018-Jun-17 04:46N 54°31' E 010°23'415.8
2018-Jun-17 04:30N 54°33' E 010°29'815.8
2018-Jun-17 04:00N 54°35' E 010°42'815.8
2018-Jun-17 03:30N 54°36' E 010°56'815.9
2018-Jun-17 03:00N 54°36' E 011°10'816.5
2018-Jun-17 02:31N 54°33' E 011°22'815.7
2018-Jun-17 02:00N 54°29' E 011°34'815.7
2018-Jun-17 01:30N 54°26' E 011°47'815.5
2018-Jun-17 01:00N 54°26' E 012°00'714.1
2018-Jun-17 00:30N 54°30' E 012°11'2514.9
2018-Jun-16 22:48N 54°48' E 012°42'412.5
2018-Jun-16 22:30N 54°49' E 012°48'612.8
2018-Jun-16 22:00N 54°50' E 012°59'714.9
2018-Jun-16 21:30N 54°53' E 013°10'815.4
2018-Jun-16 21:00N 54°56' E 013°23'915.0
2018-Jun-16 20:25N 54°59' E 013°38'614.7
2018-Jun-16 20:00N 55°01' E 013°47'814.9
2018-Jun-16 19:29N 55°04' E 014°00'714.7
2018-Jun-16 19:00N 55°08' E 014°09'3179.3
2018-Jun-16 19:00N 55°06' E 014°06'1021.1 120 / 231014.710.8 18.411.5
2018-Jun-16 18:30N 55°14' E 014°18'714.8
2018-Jun-16 18:00N 55°20' E 014°26'714.7
2018-Jun-16 17:30N 55°25' E 014°35'714.7
2018-Jun-16 17:00N 55°30' E 014°44'714.9
2018-Jun-16 16:30N 55°34' E 014°56'611.2
2018-Jun-16 15:59N 55°36' E 015°05'510.5
2018-Jun-16 15:29N 55°39' E 015°13'510.4
2018-Jun-16 15:00N 55°41' E 015°21'610.4
2018-Jun-16 14:27N 55°44' E 015°29'510.6
2018-Jun-16 13:59N 55°47' E 015°37'510.3
2018-Jun-16 13:30N 55°49' E 015°45'510.1
2018-Jun-16 13:00N 55°52' E 015°53'8 7.8
2018-Jun-16 12:00N 55°54' E 016°06'16413.7 180 / 61018.7 19.911.0
2018-Jun-16 00:00N 58°18' E 018°30'3112.6 190 / 221015.927.0 15.914.3
2018-Jun-15 21:33N 58°41' E 019°08'1130.0
2018-Jun-15 21:10N 58°53' E 019°14'614.2
2018-Jun-15 20:45N 58°58' E 019°20'414.0
2018-Jun-15 20:29N 59°01' E 019°24'714.0
2018-Jun-15 20:00N 59°07' E 019°30'6477.1
2018-Jun-15 20:00N 59°12' E 019°36'1 2.2 240 / 201014.310.8 15.214.1
2018-Jun-15 19:29N 59°13' E 019°38'714.1
2018-Jun-15 19:00N 59°18' E 019°45'1514.2
2018-Jun-15 17:57N 59°30' E 020°02'613.2
2018-Jun-15 17:30N 59°36' E 019°59'714.4
2018-Jun-15 17:00N 59°41' E 019°50'714.5
2018-Jun-15 16:30N 59°47' E 019°41'814.0
2018-Jun-15 15:58N 59°54' E 019°46'6 0.5
2018-Jun-15 03:48N 60°01' E 019°47'412.2
2018-Jun-15 03:29N 60°02' E 019°40'612.6
2018-Jun-15 03:00N 60°04' E 019°29'713.2
2018-Jun-15 02:30N 60°07' E 019°16'713.1
2018-Jun-15 02:00N 60°09' E 019°04'611.5
2018-Jun-15 01:30N 60°15' E 019°01'812.8
2018-Jun-15 00:54N 60°22' E 018°60'812.9
2018-Jun-15 00:14N 60°31' E 018°59'313.4
2018-Jun-15 00:00N 60°34' E 019°00'713.3
2018-Jun-14 23:30N 60°40' E 019°03'713.1
2018-Jun-14 23:00N 60°47' E 019°06'212 4.2
2018-Jun-12 21:00N 64°06' E 021°42'   240 / 121006.210.8 8.0 5.8

Dump ship's entire track history